sensor_id;sensor_type;location;lat;lon;timestamp;pressure;altitude;pressure_sealevel;temperature;humidity
63552;BME280;49698;48.072;7.800;2023-05-11T00:01:32;99304.28;;;12.63;81.50
63552;BME280;49698;48.072;7.800;2023-05-11T00:04:01;99306.66;;;12.65;81.47
63552;BME280;49698;48.072;7.800;2023-05-11T00:06:29;99306.97;;;12.63;81.61
63552;BME280;49698;48.072;7.800;2023-05-11T00:08:57;99305.06;;;12.64;81.39
63552;BME280;49698;48.072;7.800;2023-05-11T00:11:26;99305.88;;;12.64;81.58
63552;BME280;49698;48.072;7.800;2023-05-11T00:13:53;99304.47;;;12.67;81.63
63552;BME280;49698;48.072;7.800;2023-05-11T00:16:21;99298.78;;;12.68;81.33
63552;BME280;49698;48.072;7.800;2023-05-11T00:18:49;99299.56;;;12.69;81.41
63552;BME280;49698;48.072;7.800;2023-05-11T00:21:19;99299.09;;;12.67;81.33
63552;BME280;49698;48.072;7.800;2023-05-11T00:23:48;99297.47;;;12.66;81.24
63552;BME280;49698;48.072;7.800;2023-05-11T00:26:16;99300.00;;;12.62;81.68
63552;BME280;49698;48.072;7.800;2023-05-11T00:28:44;99302.97;;;12.61;81.79
63552;BME280;49698;48.072;7.800;2023-05-11T00:31:12;99299.78;;;12.59;82.04
63552;BME280;49698;48.072;7.800;2023-05-11T00:33:40;99300.59;;;12.59;82.01
63552;BME280;49698;48.072;7.800;2023-05-11T00:36:08;99300.59;;;12.59;81.81
63552;BME280;49698;48.072;7.800;2023-05-11T00:38:38;99299.78;;;12.59;81.90
63552;BME280;49698;48.072;7.800;2023-05-11T00:41:06;99297.09;;;12.59;81.92
63552;BME280;49698;48.072;7.800;2023-05-11T00:43:34;99293.28;;;12.60;81.95
63552;BME280;49698;48.072;7.800;2023-05-11T00:46:03;99294.88;;;12.61;82.13
63552;BME280;49698;48.072;7.800;2023-05-11T00:48:31;99292.19;;;12.61;82.33
63552;BME280;49698;48.072;7.800;2023-05-11T00:50:59;99294.88;;;12.61;82.57
63552;BME280;49698;48.072;7.800;2023-05-11T00:53:27;99290.00;;;12.63;82.35
63552;BME280;49698;48.072;7.800;2023-05-11T00:55:57;99286.78;;;12.61;82.60
63552;BME280;49698;48.072;7.800;2023-05-11T00:58:25;99279.22;;;12.63;82.87
63552;BME280;49698;48.072;7.800;2023-05-11T01:00:54;99275.09;;;12.65;82.89
63552;BME280;49698;48.072;7.800;2023-05-11T01:03:22;99279.09;;;12.68;82.80
63552;BME280;49698;48.072;7.800;2023-05-11T01:05:59;99281.00;;;12.67;82.94
63552;BME280;49698;48.072;7.800;2023-05-11T01:08:39;99277.00;;;12.65;82.81
63552;BME280;49698;48.072;7.800;2023-05-11T01:11:14;99279.81;;;12.60;82.93
63552;BME280;49698;48.072;7.800;2023-05-11T01:13:47;99286.31;;;12.59;83.17
63552;BME280;49698;48.072;7.800;2023-05-11T01:16:20;99285.19;;;12.60;83.15
63552;BME280;49698;48.072;7.800;2023-05-11T01:18:58;99288.38;;;12.62;83.17
63552;BME280;49698;48.072;7.800;2023-05-11T01:21:31;99292.69;;;12.63;83.17
63552;BME280;49698;48.072;7.800;2023-05-11T01:24:25;99287.59;;;12.61;83.28
63552;BME280;49698;48.072;7.800;2023-05-11T01:27:09;99288.69;;;12.60;83.33
63552;BME280;49698;48.072;7.800;2023-05-11T01:29:48;99282.19;;;12.61;83.25
63552;BME280;49698;48.072;7.800;2023-05-11T01:32:21;99285.69;;;12.62;83.13
63552;BME280;49698;48.072;7.800;2023-05-11T01:34:51;99280.59;;;12.60;83.25
63552;BME280;49698;48.072;7.800;2023-05-11T01:37:21;99280.91;;;12.59;83.19
63552;BME280;49698;48.072;7.800;2023-05-11T01:39:53;99288.19;;;12.58;83.26
63552;BME280;49698;48.072;7.800;2023-05-11T01:42:27;99288.00;;;12.55;83.37
63552;BME280;49698;48.072;7.800;2023-05-11T01:44:56;99282.09;;;12.53;83.60
63552;BME280;49698;48.072;7.800;2023-05-11T01:47:29;99283.19;;;12.52;83.80
63552;BME280;49698;48.072;7.800;2023-05-11T01:49:59;99286.47;;;12.48;84.25
63552;BME280;49698;48.072;7.800;2023-05-11T01:52:30;99277.41;;;12.44;84.38
63552;BME280;49698;48.072;7.800;2023-05-11T01:55:01;99286.88;;;12.42;84.61
63552;BME280;49698;48.072;7.800;2023-05-11T01:57:31;99287.66;;;12.42;84.84
63552;BME280;49698;48.072;7.800;2023-05-11T01:59:59;99289.88;;;12.40;84.97
63552;BME280;49698;48.072;7.800;2023-05-11T02:02:39;99283.75;;;12.35;85.27
63552;BME280;49698;48.072;7.800;2023-05-11T02:05:09;99290.25;;;12.34;85.63
63552;BME280;49698;48.072;7.800;2023-05-11T02:07:41;99280.25;;;12.34;85.56
63552;BME280;49698;48.072;7.800;2023-05-11T02:10:11;99288.66;;;12.33;85.63
63552;BME280;49698;48.072;7.800;2023-05-11T02:12:42;99287.34;;;12.30;85.82
63552;BME280;49698;48.072;7.800;2023-05-11T02:15:12;99290.34;;;12.29;86.09
63552;BME280;49698;48.072;7.800;2023-05-11T02:17:43;99288.56;;;12.24;86.24
63552;BME280;49698;48.072;7.800;2023-05-11T02:20:12;99292.09;;;12.19;86.59
63552;BME280;49698;48.072;7.800;2023-05-11T02:22:43;99292.72;;;12.16;86.93
63552;BME280;49698;48.072;7.800;2023-05-11T02:25:12;99286.91;;;12.09;87.35
63552;BME280;49698;48.072;7.800;2023-05-11T02:27:42;99292.09;;;12.06;87.61
63552;BME280;49698;48.072;7.800;2023-05-11T02:30:11;99289.97;;;12.03;87.71
63552;BME280;49698;48.072;7.800;2023-05-11T02:32:46;99292.19;;;12.01;88.00
63552;BME280;49698;48.072;7.800;2023-05-11T02:35:19;99285.16;;;11.99;88.22
63552;BME280;49698;48.072;7.800;2023-05-11T02:37:51;99292.47;;;11.99;88.28
63552;BME280;49698;48.072;7.800;2023-05-11T02:40:27;99287.06;;;11.99;88.52
63552;BME280;49698;48.072;7.800;2023-05-11T02:42:59;99282.56;;;11.94;88.70
63552;BME280;49698;48.072;7.800;2023-05-11T02:45:30;99287.44;;;11.92;89.18
63552;BME280;49698;48.072;7.800;2023-05-11T02:48:04;99282.88;;;11.93;88.80
63552;BME280;49698;48.072;7.800;2023-05-11T02:50:36;99286.63;;;11.92;88.94
63552;BME280;49698;48.072;7.800;2023-05-11T02:53:10;99283.66;;;11.93;88.88
63552;BME280;49698;48.072;7.800;2023-05-11T02:55:42;99284.75;;;11.92;88.97
63552;BME280;49698;48.072;7.800;2023-05-11T02:58:10;99279.66;;;11.91;88.72
63552;BME280;49698;48.072;7.800;2023-05-11T03:00:42;99286.94;;;11.90;88.65
63552;BME280;49698;48.072;7.800;2023-05-11T03:03:12;99288.06;;;11.89;88.88
63552;BME280;49698;48.072;7.800;2023-05-11T03:05:40;99287.25;;;11.89;88.96
63552;BME280;49698;48.072;7.800;2023-05-11T03:08:08;99277.28;;;11.89;89.02
63552;BME280;49698;48.072;7.800;2023-05-11T03:10:36;99271.88;;;11.89;88.87
63552;BME280;49698;48.072;7.800;2023-05-11T03:13:06;99275.88;;;11.92;88.98
63552;BME280;49698;48.072;7.800;2023-05-11T03:15:36;99276.38;;;11.94;88.78
63552;BME280;49698;48.072;7.800;2023-05-11T03:18:06;99274.50;;;11.94;88.86
63552;BME280;49698;48.072;7.800;2023-05-11T03:20:41;99269.91;;;11.95;88.76
63552;BME280;49698;48.072;7.800;2023-05-11T03:23:10;99272.09;;;11.93;88.80
63552;BME280;49698;48.072;7.800;2023-05-11T03:25:40;99264.81;;;11.93;88.94
63552;BME280;49698;48.072;7.800;2023-05-11T03:28:10;99256.72;;;11.93;88.83
63552;BME280;49698;48.072;7.800;2023-05-11T03:30:42;99263.72;;;11.94;88.81
63552;BME280;49698;48.072;7.800;2023-05-11T03:33:11;99260.22;;;11.94;88.58
63552;BME280;49698;48.072;7.800;2023-05-11T03:35:42;99257.81;;;11.92;88.60
63552;BME280;49698;48.072;7.800;2023-05-11T03:38:14;99254.53;;;11.95;88.81
63552;BME280;49698;48.072;7.800;2023-05-11T03:40:45;99259.91;;;11.95;88.79
63552;BME280;49698;48.072;7.800;2023-05-11T03:43:17;99258.03;;;11.96;88.99
63552;BME280;49698;48.072;7.800;2023-05-11T03:45:47;99263.13;;;11.97;88.51
63552;BME280;49698;48.072;7.800;2023-05-11T03:48:18;99258.53;;;11.98;88.66
63552;BME280;49698;48.072;7.800;2023-05-11T03:50:49;99253.94;;;11.98;88.75
63552;BME280;49698;48.072;7.800;2023-05-11T03:53:18;99256.34;;;12.00;88.51
63552;BME280;49698;48.072;7.800;2023-05-11T03:55:47;99252.84;;;11.99;88.29
63552;BME280;49698;48.072;7.800;2023-05-11T03:58:19;99255.53;;;11.99;88.55
63552;BME280;49698;48.072;7.800;2023-05-11T04:00:48;99255.06;;;11.97;88.89
63552;BME280;49698;48.072;7.800;2023-05-11T04:03:17;99255.31;;;11.96;88.75
63552;BME280;49698;48.072;7.800;2023-05-11T04:05:45;99255.31;;;11.96;88.98
63552;BME280;49698;48.072;7.800;2023-05-11T04:08:16;99248.56;;;11.98;88.95
63552;BME280;49698;48.072;7.800;2023-05-11T04:10:44;99250.16;;;11.99;88.59
63552;BME280;49698;48.072;7.800;2023-05-11T04:13:12;99247.19;;;12.01;88.81
63552;BME280;49698;48.072;7.800;2023-05-11T04:15:41;99249.09;;;12.01;88.67
63552;BME280;49698;48.072;7.800;2023-05-11T04:18:09;99248.78;;;12.02;88.43
63552;BME280;49698;48.072;7.800;2023-05-11T04:20:36;99245.78;;;12.04;88.51
63552;BME280;49698;48.072;7.800;2023-05-11T04:23:05;99253.38;;;12.02;88.41
63552;BME280;49698;48.072;7.800;2023-05-11T04:25:35;99254.47;;;12.01;88.74
63552;BME280;49698;48.072;7.800;2023-05-11T04:28:04;99257.16;;;12.01;88.31
63552;BME280;49698;48.072;7.800;2023-05-11T04:30:32;99256.34;;;12.00;88.70
63552;BME280;49698;48.072;7.800;2023-05-11T04:33:00;99254.47;;;12.01;88.82
63552;BME280;49698;48.072;7.800;2023-05-11T04:35:29;99261.44;;;12.02;88.69
63552;BME280;49698;48.072;7.800;2023-05-11T04:37:57;99258.75;;;12.02;88.73
63552;BME280;49698;48.072;7.800;2023-05-11T04:40:25;99259.84;;;12.01;89.02
63552;BME280;49698;48.072;7.800;2023-05-11T04:42:55;99256.66;;;11.98;89.28
63552;BME280;49698;48.072;7.800;2023-05-11T04:45:23;99262.13;;;11.93;89.36
63552;BME280;49698;48.072;7.800;2023-05-11T04:47:51;99268.69;;;11.87;89.83
63552;BME280;49698;48.072;7.800;2023-05-11T04:50:19;99256.81;;;11.88;90.18
63552;BME280;49698;48.072;7.800;2023-05-11T04:52:47;99261.59;;;11.91;89.76
63552;BME280;49698;48.072;7.800;2023-05-11T04:55:15;99261.81;;;11.95;89.57
63552;BME280;49698;48.072;7.800;2023-05-11T04:57:43;99257.75;;;11.97;89.41
63552;BME280;49698;48.072;7.800;2023-05-11T05:00:13;99260.94;;;11.99;89.47
63552;BME280;49698;48.072;7.800;2023-05-11T05:02:41;99269.53;;;12.02;89.49
63552;BME280;49698;48.072;7.800;2023-05-11T05:05:10;99275.91;;;12.06;89.16
63552;BME280;49698;48.072;7.800;2023-05-11T05:07:38;99280.72;;;12.09;89.09
63552;BME280;49698;48.072;7.800;2023-05-11T05:10:07;99284.69;;;12.11;88.93
63552;BME280;49698;48.072;7.800;2023-05-11T05:12:35;99279.84;;;12.13;88.64
63552;BME280;49698;48.072;7.800;2023-05-11T05:15:04;99280.09;;;12.12;88.76
63552;BME280;49698;48.072;7.800;2023-05-11T05:17:33;99278.53;;;12.11;88.96
63552;BME280;49698;48.072;7.800;2023-05-11T05:20:02;99285.72;;;12.15;88.98
63552;BME280;49698;48.072;7.800;2023-05-11T05:22:30;99283.75;;;12.21;88.69
63552;BME280;49698;48.072;7.800;2023-05-11T05:24:59;99279.94;;;12.22;88.59
63552;BME280;49698;48.072;7.800;2023-05-11T05:27:27;99286.34;;;12.26;88.68
63552;BME280;49698;48.072;7.800;2023-05-11T05:29:56;99284.16;;;12.28;88.53
63552;BME280;49698;48.072;7.800;2023-05-11T05:32:25;99283.38;;;12.28;88.51
63552;BME280;49698;48.072;7.800;2023-05-11T05:34:55;99286.66;;;12.24;88.80
63552;BME280;49698;48.072;7.800;2023-05-11T05:37:22;99288.56;;;12.24;88.78
63552;BME280;49698;48.072;7.800;2023-05-11T05:39:51;99283.16;;;12.24;89.09
63552;BME280;49698;48.072;7.800;2023-05-11T05:42:19;99285.25;;;12.27;89.08
63552;BME280;49698;48.072;7.800;2023-05-11T05:44:48;99288.94;;;12.31;88.98
63552;BME280;49698;48.072;7.800;2023-05-11T05:47:17;99285.66;;;12.34;88.93
63552;BME280;49698;48.072;7.800;2023-05-11T05:49:46;99283.47;;;12.36;88.91
63552;BME280;49698;48.072;7.800;2023-05-11T05:52:15;99294.03;;;12.33;89.15
63552;BME280;49698;48.072;7.800;2023-05-11T05:54:46;99296.75;;;12.33;89.60
63552;BME280;49698;48.072;7.800;2023-05-11T05:57:14;99295.16;;;12.32;89.85
63552;BME280;49698;48.072;7.800;2023-05-11T05:59:43;99296.75;;;12.33;89.88
63552;BME280;49698;48.072;7.800;2023-05-11T06:02:12;99291.03;;;12.34;90.06
63552;BME280;49698;48.072;7.800;2023-05-11T06:04:40;99290.16;;;12.39;90.36
63552;BME280;49698;48.072;7.800;2023-05-11T06:07:08;99293.16;;;12.37;89.94
63552;BME280;49698;48.072;7.800;2023-05-11T06:09:37;99287.75;;;12.37;90.24
63552;BME280;49698;48.072;7.800;2023-05-11T06:12:06;99287.19;;;12.40;90.01
63552;BME280;49698;48.072;7.800;2023-05-11T06:14:38;99286.88;;;12.42;90.20
63552;BME280;49698;48.072;7.800;2023-05-11T06:17:07;99291.97;;;12.43;89.93
63552;BME280;49698;48.072;7.800;2023-05-11T06:19:35;99295.75;;;12.42;89.98
63552;BME280;49698;48.072;7.800;2023-05-11T06:22:04;99292.47;;;12.45;90.05
63552;BME280;49698;48.072;7.800;2023-05-11T06:24:33;99290.78;;;12.49;89.82
63552;BME280;49698;48.072;7.800;2023-05-11T06:27:03;99289.59;;;12.56;89.87
63552;BME280;49698;48.072;7.800;2023-05-11T06:29:32;99291.06;;;12.62;89.77
63552;BME280;49698;48.072;7.800;2023-05-11T06:32:02;99283.41;;;12.69;89.48
63552;BME280;49698;48.072;7.800;2023-05-11T06:34:31;99286.81;;;12.75;89.15
63552;BME280;49698;48.072;7.800;2023-05-11T06:37:00;99291.59;;;12.78;89.05
63552;BME280;49698;48.072;7.800;2023-05-11T06:39:28;99290.00;;;12.77;89.20
63552;BME280;49698;48.072;7.800;2023-05-11T06:41:56;99282.63;;;12.82;89.19
63552;BME280;49698;48.072;7.800;2023-05-11T06:44:28;99291.38;;;12.88;88.96
63552;BME280;49698;48.072;7.800;2023-05-11T06:46:56;99292.09;;;12.93;88.38
63552;BME280;49698;48.072;7.800;2023-05-11T06:49:26;99284.38;;;13.01;88.54
63552;BME280;49698;48.072;7.800;2023-05-11T06:51:54;99293.59;;;13.13;87.88
63552;BME280;49698;48.072;7.800;2023-05-11T06:54:22;99282.78;;;13.27;87.16
63552;BME280;49698;48.072;7.800;2023-05-11T06:56:50;99278.75;;;13.38;87.25
63552;BME280;49698;48.072;7.800;2023-05-11T06:59:18;99276.44;;;13.45;86.76
63552;BME280;49698;48.072;7.800;2023-05-11T07:01:48;99282.69;;;13.55;86.59
63552;BME280;49698;48.072;7.800;2023-05-11T07:04:16;99278.47;;;13.62;85.37
63552;BME280;49698;48.072;7.800;2023-05-11T07:06:44;99283.97;;;13.71;85.88
63552;BME280;49698;48.072;7.800;2023-05-11T07:09:12;99279.78;;;13.87;84.87
63552;BME280;49698;48.072;7.800;2023-05-11T07:11:40;99279.09;;;14.04;83.95
63552;BME280;49698;48.072;7.800;2023-05-11T07:14:08;99280.25;;;14.12;83.52
63552;BME280;49698;48.072;7.800;2023-05-11T07:16:37;99289.06;;;14.17;83.03
63552;BME280;49698;48.072;7.800;2023-05-11T07:19:07;99285.78;;;14.29;82.06
63552;BME280;49698;48.072;7.800;2023-05-11T07:21:35;99282.44;;;14.32;82.05
63552;BME280;49698;48.072;7.800;2023-05-11T07:24:04;99281.69;;;14.40;81.71
63552;BME280;49698;48.072;7.800;2023-05-11T07:26:32;99285.66;;;14.43;81.08
63552;BME280;49698;48.072;7.800;2023-05-11T07:29:00;99283.16;;;14.47;81.20
63552;BME280;49698;48.072;7.800;2023-05-11T07:31:28;99284.16;;;14.51;80.74
63552;BME280;49698;48.072;7.800;2023-05-11T07:33:56;99288.75;;;14.50;81.10
63552;BME280;49698;48.072;7.800;2023-05-11T07:36:26;99282.56;;;14.50;81.10
63552;BME280;49698;48.072;7.800;2023-05-11T07:38:55;99288.44;;;14.52;80.27
63552;BME280;49698;48.072;7.800;2023-05-11T07:41:27;99282.59;;;14.58;79.68
63552;BME280;49698;48.072;7.800;2023-05-11T07:43:55;99282.16;;;14.65;79.71
63552;BME280;49698;48.072;7.800;2023-05-11T07:46:23;99280.88;;;14.71;79.65
63552;BME280;49698;48.072;7.800;2023-05-11T07:48:51;99287.28;;;14.75;78.56
63552;BME280;49698;48.072;7.800;2023-05-11T07:51:23;99283.94;;;14.78;77.93
63552;BME280;49698;48.072;7.800;2023-05-11T07:53:53;99280.59;;;14.81;77.83
63552;BME280;49698;48.072;7.800;2023-05-11T07:56:21;99276.34;;;14.89;76.14
63552;BME280;49698;48.072;7.800;2023-05-11T07:58:49;99287.50;;;14.96;74.87
63552;BME280;49698;48.072;7.800;2023-05-11T08:01:17;99277.47;;;14.97;74.20
63552;BME280;49698;48.072;7.800;2023-05-11T08:03:45;99273.47;;;14.94;74.26
63552;BME280;49698;48.072;7.800;2023-05-11T08:06:13;99277.66;;;15.00;74.33
63552;BME280;49698;48.072;7.800;2023-05-11T08:08:41;99281.66;;;15.20;74.18
63552;BME280;49698;48.072;7.800;2023-05-11T08:11:10;99285.19;;;15.47;73.26
63552;BME280;49698;48.072;7.800;2023-05-11T08:13:40;99280.91;;;15.63;72.37
63552;BME280;49698;48.072;7.800;2023-05-11T08:16:08;99281.25;;;15.79;71.68
63552;BME280;49698;48.072;7.800;2023-05-11T08:18:36;99277.41;;;15.88;69.79
63552;BME280;49698;48.072;7.800;2023-05-11T08:21:05;99276.13;;;15.95;69.57
63552;BME280;49698;48.072;7.800;2023-05-11T08:23:33;99279.78;;;15.99;69.78
63552;BME280;49698;48.072;7.800;2023-05-11T08:26:01;99278.66;;;16.08;68.79
63552;BME280;49698;48.072;7.800;2023-05-11T08:28:30;99281.69;;;16.07;69.26
63552;BME280;49698;48.072;7.800;2023-05-11T08:30:59;99275.31;;;16.11;69.04
63552;BME280;49698;48.072;7.800;2023-05-11T08:33:27;99277.34;;;16.14;68.84
63552;BME280;49698;48.072;7.800;2023-05-11T08:35:58;99278.31;;;16.19;68.77
63552;BME280;49698;48.072;7.800;2023-05-11T08:38:26;99274.66;;;16.23;68.92
63552;BME280;49698;48.072;7.800;2023-05-11T08:40:54;99273.34;;;16.29;68.07
63552;BME280;49698;48.072;7.800;2023-05-11T08:43:24;99277.00;;;16.33;68.16
63552;BME280;49698;48.072;7.800;2023-05-11T08:45:56;99278.41;;;16.39;68.17
63552;BME280;49698;48.072;7.800;2023-05-11T08:48:24;99273.78;;;16.40;67.34
63552;BME280;49698;48.072;7.800;2023-05-11T08:50:53;99273.00;;;16.39;67.08
63552;BME280;49698;48.072;7.800;2023-05-11T08:53:21;99265.97;;;16.38;67.14
63552;BME280;49698;48.072;7.800;2023-05-11T08:55:50;99265.50;;;16.36;67.14
63552;BME280;49698;48.072;7.800;2023-05-11T08:58:18;99268.34;;;16.40;66.74
63552;BME280;49698;48.072;7.800;2023-05-11T09:00:48;99268.50;;;16.44;66.83
63552;BME280;49698;48.072;7.800;2023-05-11T09:03:18;99270.09;;;16.53;66.39
63552;BME280;49698;48.072;7.800;2023-05-11T09:05:47;99263.00;;;16.61;65.66
63552;BME280;49698;48.072;7.800;2023-05-11T09:08:19;99269.22;;;16.70;64.86
63552;BME280;49698;48.072;7.800;2023-05-11T09:10:49;99266.50;;;16.70;64.58
63552;BME280;49698;48.072;7.800;2023-05-11T09:13:17;99259.47;;;16.69;65.03
63552;BME280;49698;48.072;7.800;2023-05-11T09:15:48;99271.59;;;16.80;64.59
63552;BME280;49698;48.072;7.800;2023-05-11T09:18:18;99261.66;;;16.84;64.37
63552;BME280;49698;48.072;7.800;2023-05-11T09:20:49;99266.06;;;16.98;64.30
63552;BME280;49698;48.072;7.800;2023-05-11T09:23:18;99258.63;;;17.07;64.14
63552;BME280;49698;48.072;7.800;2023-05-11T09:25:54;99256.69;;;17.16;63.28
63552;BME280;49698;48.072;7.800;2023-05-11T09:28:23;99251.91;;;17.13;64.06
63552;BME280;49698;48.072;7.800;2023-05-11T09:30:53;99254.56;;;17.22;63.40
63552;BME280;49698;48.072;7.800;2023-05-11T09:33:26;99249.91;;;17.22;63.51
63552;BME280;49698;48.072;7.800;2023-05-11T09:35:56;99250.41;;;17.24;62.93
63552;BME280;49698;48.072;7.800;2023-05-11T09:38:25;99243.81;;;17.25;63.32
63552;BME280;49698;48.072;7.800;2023-05-11T09:40:54;99252.19;;;17.20;63.31
63552;BME280;49698;48.072;7.800;2023-05-11T09:43:24;99241.19;;;17.17;63.00
63552;BME280;49698;48.072;7.800;2023-05-11T09:45:54;99250.34;;;17.03;63.09
63552;BME280;49698;48.072;7.800;2023-05-11T09:48:26;99247.25;;;16.93;63.20
63552;BME280;49698;48.072;7.800;2023-05-11T09:51:04;99247.91;;;16.90;63.14
63552;BME280;49698;48.072;7.800;2023-05-11T09:53:34;99247.56;;;16.91;63.83
63552;BME280;49698;48.072;7.800;2023-05-11T09:56:04;99244.25;;;16.85;63.84
63552;BME280;49698;48.072;7.800;2023-05-11T09:58:46;99238.06;;;16.76;64.49
63552;BME280;49698;48.072;7.800;2023-05-11T10:01:15;99236.03;;;16.73;65.45
63552;BME280;49698;48.072;7.800;2023-05-11T10:03:52;99237.00;;;16.60;65.38
63552;BME280;49698;48.072;7.800;2023-05-11T10:06:24;99236.91;;;16.48;65.98
63552;BME280;49698;48.072;7.800;2023-05-11T10:08:53;99237.72;;;16.39;66.61
63552;BME280;49698;48.072;7.800;2023-05-11T10:11:21;99230.88;;;16.33;66.38
63552;BME280;49698;48.072;7.800;2023-05-11T10:13:51;99233.31;;;16.26;66.39
63552;BME280;49698;48.072;7.800;2023-05-11T10:16:19;99239.69;;;16.22;66.87
63552;BME280;49698;48.072;7.800;2023-05-11T10:18:48;99236.81;;;16.27;67.28
63552;BME280;49698;48.072;7.800;2023-05-11T10:21:17;99233.28;;;16.35;66.83
63552;BME280;49698;48.072;7.800;2023-05-11T10:23:45;99238.16;;;16.50;66.35
63552;BME280;49698;48.072;7.800;2023-05-11T10:26:15;99224.06;;;16.57;65.87
63552;BME280;49698;48.072;7.800;2023-05-11T10:28:43;99228.06;;;16.59;65.08
63552;BME280;49698;48.072;7.800;2023-05-11T10:31:12;99222.97;;;16.58;64.55
63552;BME280;49698;48.072;7.800;2023-05-11T10:33:42;99218.38;;;16.50;65.42
63552;BME280;49698;48.072;7.800;2023-05-11T10:36:11;99217.44;;;16.46;65.04
63552;BME280;49698;48.072;7.800;2023-05-11T10:38:45;99219.03;;;16.47;64.92
63552;BME280;49698;48.072;7.800;2023-05-11T10:41:23;99212.28;;;16.53;64.90
63552;BME280;49698;48.072;7.800;2023-05-11T10:44:20;99210.84;;;16.55;64.13
63552;BME280;49698;48.072;7.800;2023-05-11T10:50:09;99213.47;;;16.43;65.38
63552;BME280;49698;48.072;7.800;2023-05-11T10:52:53;99207.38;;;16.46;64.54
63552;BME280;49698;48.072;7.800;2023-05-11T10:55:35;99204.00;;;16.49;64.53
63552;BME280;49698;48.072;7.800;2023-05-11T10:58:09;99203.97;;;16.58;64.43
63552;BME280;49698;48.072;7.800;2023-05-11T11:01:17;99205.84;;;16.66;63.95
63552;BME280;49698;48.072;7.800;2023-05-11T11:03:57;99197.72;;;16.66;63.46
63552;BME280;49698;48.072;7.800;2023-05-11T11:06:25;99192.72;;;16.68;64.12
63552;BME280;49698;48.072;7.800;2023-05-11T11:08:56;99195.59;;;16.72;63.09
63552;BME280;49698;48.072;7.800;2023-05-11T11:11:30;99190.66;;;16.74;63.29
63552;BME280;49698;48.072;7.800;2023-05-11T11:14:00;99192.38;;;16.78;62.81
63552;BME280;49698;48.072;7.800;2023-05-11T11:16:28;99198.38;;;16.93;63.03
63552;BME280;49698;48.072;7.800;2023-05-11T11:19:34;99192.16;;;17.13;62.12
63552;BME280;49698;48.072;7.800;2023-05-11T11:22:03;99187.25;;;17.27;61.49
63552;BME280;49698;48.072;7.800;2023-05-11T11:24:44;99191.34;;;17.33;61.54
63552;BME280;49698;48.072;7.800;2023-05-11T11:27:14;99185.97;;;17.46;61.08
63552;BME280;49698;48.072;7.800;2023-05-11T11:30:16;99188.03;;;17.49;61.28
63552;BME280;49698;48.072;7.800;2023-05-11T11:32:44;99191.81;;;17.69;60.41
63552;BME280;49698;48.072;7.800;2023-05-11T11:35:43;99181.72;;;17.90;59.69
63552;BME280;49698;48.072;7.800;2023-05-11T11:38:14;99178.25;;;18.02;58.03
63552;BME280;49698;48.072;7.800;2023-05-11T11:40:43;99170.44;;;18.13;58.26
63552;BME280;49698;48.072;7.800;2023-05-11T11:43:15;99174.88;;;18.29;57.38
63552;BME280;49698;48.072;7.800;2023-05-11T11:45:52;99165.56;;;18.43;57.51
63552;BME280;49698;48.072;7.800;2023-05-11T11:48:28;99170.78;;;18.60;57.10
63552;BME280;49698;48.072;7.800;2023-05-11T11:51:00;99172.84;;;18.75;55.93
63552;BME280;49698;48.072;7.800;2023-05-11T11:56:42;99160.41;;;19.02;56.22
63552;BME280;49698;48.072;7.800;2023-05-11T11:59:11;99166.34;;;19.20;55.08
63552;BME280;49698;48.072;7.800;2023-05-11T12:01:42;99159.75;;;19.34;55.42
63552;BME280;49698;48.072;7.800;2023-05-11T12:04:37;99158.16;;;19.33;55.19
63552;BME280;49698;48.072;7.800;2023-05-11T12:07:07;99166.91;;;18.98;55.46
63552;BME280;49698;48.072;7.800;2023-05-11T12:09:39;99163.63;;;18.31;57.75
63552;BME280;49698;48.072;7.800;2023-05-11T12:12:08;99171.56;;;17.66;59.70
63552;BME280;49698;48.072;7.800;2023-05-11T12:14:38;99165.38;;;17.03;62.12
63552;BME280;49698;48.072;7.800;2023-05-11T12:17:07;99179.59;;;16.49;65.50
63552;BME280;49698;48.072;7.800;2023-05-11T12:19:42;99190.94;;;16.04;67.60
63552;BME280;49698;48.072;7.800;2023-05-11T12:22:11;99190.53;;;15.59;69.97
63552;BME280;49698;48.072;7.800;2023-05-11T12:24:41;99200.59;;;15.24;71.96
63552;BME280;49698;48.072;7.800;2023-05-11T12:27:09;99203.59;;;14.87;73.70
63552;BME280;49698;48.072;7.800;2023-05-11T12:29:37;99195.06;;;14.54;75.24
63552;BME280;49698;48.072;7.800;2023-05-11T12:32:11;99200.75;;;14.13;77.79
63552;BME280;49698;48.072;7.800;2023-05-11T12:34:39;99197.56;;;13.80;80.13
63552;BME280;49698;48.072;7.800;2023-05-11T12:37:07;99204.09;;;13.56;82.36
63552;BME280;49698;48.072;7.800;2023-05-11T12:39:36;99203.72;;;13.49;82.86
63552;BME280;49698;48.072;7.800;2023-05-11T12:42:05;99205.72;;;13.43;82.83
63552;BME280;49698;48.072;7.800;2023-05-11T12:44:33;99203.94;;;13.39;82.86
63552;BME280;49698;48.072;7.800;2023-05-11T12:47:04;99206.38;;;13.40;83.60
63552;BME280;49698;48.072;7.800;2023-05-11T12:49:33;99198.13;;;13.45;83.58
63552;BME280;49698;48.072;7.800;2023-05-11T12:52:03;99204.53;;;13.50;83.01
63552;BME280;49698;48.072;7.800;2023-05-11T12:54:35;99200.97;;;13.40;83.36
63552;BME280;49698;48.072;7.800;2023-05-11T12:57:05;99199.00;;;13.32;84.29
63552;BME280;49698;48.072;7.800;2023-05-11T12:59:34;99193.69;;;13.27;85.23
63552;BME280;49698;48.072;7.800;2023-05-11T13:02:07;99194.31;;;13.24;85.42
63552;BME280;49698;48.072;7.800;2023-05-11T13:04:38;99195.41;;;13.23;84.49
63552;BME280;49698;48.072;7.800;2023-05-11T13:07:06;99196.63;;;13.17;85.29
63552;BME280;49698;48.072;7.800;2023-05-11T13:09:34;99192.09;;;13.12;84.59
63552;BME280;49698;48.072;7.800;2023-05-11T13:12:09;99183.84;;;13.09;85.13
63552;BME280;49698;48.072;7.800;2023-05-11T13:14:38;99189.41;;;13.12;85.95
63552;BME280;49698;48.072;7.800;2023-05-11T13:17:06;99180.81;;;13.24;85.79
63552;BME280;49698;48.072;7.800;2023-05-11T13:19:34;99179.91;;;13.29;85.59
63552;BME280;49698;48.072;7.800;2023-05-11T13:22:05;99177.75;;;13.39;85.16
63552;BME280;49698;48.072;7.800;2023-05-11T13:24:33;99168.31;;;13.51;84.25